Time;durP1;ratioP1;P1;durP2;ratioP2;P2;SDS_P1;SDS_P2;PMS_P1;PMS_P2;Temp;Humidity;BMP_temperature;BMP_pressure;BME280_temperature;BME280_humidity;BME280_pressure;Samples;Min_cycle;Max_cycle;Signal;HPM_P1;HPM_P2
2021/12/03 00:00:17;;;;;;;10.45;5.85;;;2.30;99.90;;;1.93;100.00;96396.03;171651;28;1425;-79
2021/12/03 00:00:29;;;;;;;11.01;6.24;;;2.30;99.90;;;1.96;100.00;96398.38;171021;28;1691;-80
2021/12/03 00:00:43;;;;;;;12.51;6.20;;;2.30;99.90;;;1.94;100.00;96400.38;170982;28;1236;-80
2021/12/03 00:01:04;;;;;;;12.77;5.75;;;2.30;99.90;;;1.99;100.00;96407.84;172287;28;1248;-80
2021/12/03 00:01:20;;;;;;;11.35;5.49;;;2.30;99.90;;;1.95;100.00;96403.84;171815;28;2825;-79
2021/12/03 00:01:32;;;;;;;11.21;5.45;;;2.30;99.90;;;1.94;100.00;96395.06;172276;28;1435;-80
2021/12/03 00:01:39;;;;;;;12.30;5.71;;;2.30;99.90;;;1.93;100.00;96392.56;172488;28;1680;-80
2021/12/03 00:01:46;;;;;;;13.43;5.70;;;2.30;99.90;;;1.96;100.00;96400.22;171905;28;1441;-79
2021/12/03 00:01:51;;;;;;;12.90;5.85;;;2.30;99.90;;;1.90;100.00;96392.88;172312;28;1116;-80
2021/12/03 00:01:58;;;;;;;13.02;5.60;;;2.30;99.90;;;1.89;100.00;96393.88;171930;28;876;-80
2021/12/03 00:02:04;;;;;;;12.98;5.53;;;2.30;99.90;;;1.99;100.00;96403.38;170691;28;1277;-80
2021/12/03 00:02:10;;;;;;;12.77;5.50;;;2.30;99.90;;;2.02;100.00;96410.19;172284;28;1484;-80
2021/12/03 00:02:16;;;;;;;11.27;5.53;;;2.30;99.90;;;1.93;100.00;96392.56;172391;28;1036;-79
2021/12/03 00:02:22;;;;;;;11.13;5.20;;;2.30;99.90;;;1.93;100.00;96401.34;171806;28;1337;-79
2021/12/03 00:02:28;;;;;;;10.93;5.20;;;2.30;99.90;;;1.98;100.00;96408.81;171712;28;1299;-81
2021/12/03 00:02:34;;;;;;;10.15;5.30;;;2.30;99.90;;;1.90;100.00;96396.38;172818;28;1263;-79
2021/12/03 00:02:40;;;;;;;9.68;5.43;;;2.30;99.90;;;1.65;100.00;96353.00;173705;28;1323;-78
2021/12/03 00:02:46;;;;;;;9.34;5.36;;;2.30;99.90;;;1.94;100.00;96400.38;173641;28;1473;-80
2021/12/03 00:02:53;;;;;;;8.85;5.38;;;2.30;99.90;;;2.01;100.00;96416.47;172304;28;1367;-79
2021/12/03 00:02:59;;;;;;;8.90;5.43;;;2.30;99.90;;;1.84;100.00;96381.09;171040;28;1321;-79
2021/12/03 00:03:06;;;;;;;9.45;5.07;;;2.30;99.90;;;1.82;100.00;96379.56;172501;28;1114;-79
2021/12/03 00:03:13;;;;;;;9.60;4.93;;;2.30;99.90;;;1.93;100.00;96392.56;172959;28;1286;-79
2021/12/03 00:03:20;;;;;;;10.88;5.05;;;2.30;99.90;;;2.02;100.00;96405.69;173680;28;1149;-80
2021/12/03 00:03:26;;;;;;;12.24;5.24;;;2.30;99.90;;;1.92;100.00;96390.88;171347;28;1119;-80
2021/12/03 00:03:34;;;;;;;11.93;5.50;;;2.30;99.90;;;1.98;100.00;96400.88;173172;28;1287;-80
2021/12/03 00:03:40;;;;;;;12.12;5.67;;;2.30;99.90;;;2.00;100.00;96404.19;172689;28;1099;-80
2021/12/03 00:03:48;;;;;;;11.83;5.67;;;2.30;99.90;;;1.99;100.00;96407.84;171087;28;1368;-78
2021/12/03 00:03:54;;;;;;;11.47;5.70;;;2.30;99.90;;;1.98;100.00;96409.66;171361;28;1289;-79
2021/12/03 00:04:01;;;;;;;11.80;5.53;;;2.30;99.90;;;1.87;100.00;96391.38;171863;28;1401;-80
2021/12/03 00:04:07;;;;;;;11.56;5.44;;;2.30;99.90;;;1.87;100.00;96388.72;171723;28;1370;-80
2021/12/03 00:04:13;;;;;;;11.17;5.60;;;2.30;99.90;;;1.59;100.00;96343.03;171622;28;1341;-79
2021/12/03 00:04:19;;;;;;;11.40;5.57;;;2.30;99.90;;;1.82;100.00;96379.56;170484;28;1522;-80
2021/12/03 00:04:25;;;;;;;10.57;5.35;;;2.30;99.90;;;1.94;100.00;96405.66;171133;28;820;-80
2021/12/03 00:04:31;;;;;;;11.00;5.53;;;2.30;99.90;;;1.95;100.00;96403.84;172033;28;1265;-80
2021/12/03 00:04:37;;;;;;;12.20;5.70;;;2.30;99.90;;;1.80;100.00;96382.41;171835;28;1184;-80
2021/12/03 00:04:43;;;;;;;12.67;5.60;;;2.30;99.90;;;1.88;100.00;96389.53;170988;28;1554;-79
2021/12/03 00:04:49;;;;;;;12.57;5.50;;;2.30;99.90;;;1.89;100.00;96396.53;172506;28;1355;-80
2021/12/03 00:04:55;;;;;;;12.63;5.47;;;2.30;99.90;;;1.91;100.00;96394.56;172999;28;1410;-78
2021/12/03 00:05:01;;;;;;;12.05;5.32;;;2.30;99.90;;;1.87;100.00;96387.88;172498;28;1240;-80
2021/12/03 00:05:09;;;;;;;10.88;5.00;;;2.30;99.90;;;1.80;100.00;96378.91;173182;28;1297;-80
2021/12/03 00:05:15;;;;;;;10.97;5.33;;;2.30;99.90;;;1.89;100.00;96397.34;171932;28;1410;-80
2021/12/03 00:05:22;;;;;;;11.98;5.70;;;2.30;99.90;;;1.92;100.00;96398.84;171557;28;1689;-79
2021/12/03 00:05:28;;;;;;;13.15;5.85;;;2.30;99.90;;;1.94;100.00;96404.84;172346;28;1398;-80
2021/12/03 00:05:35;;;;;;;14.48;6.13;;;2.30;99.90;;;1.95;100.00;96403.84;172932;28;1493;-79
2021/12/03 00:05:41;;;;;;;14.80;5.93;;;2.30;99.90;;;1.89;100.00;96396.53;172037;28;1958;-79
2021/12/03 00:05:48;;;;;;;14.63;5.72;;;2.30;99.90;;;1.88;100.00;96394.84;170484;28;1182;-80
2021/12/03 00:05:56;;;;;;;13.80;5.50;;;2.30;99.90;;;1.82;100.00;96390.19;172274;28;1374;-79
2021/12/03 00:06:03;;;;;;;13.01;5.46;;;2.30;99.90;;;1.51;100.00;96329.72;171769;28;1462;-77
2021/12/03 00:06:09;;;;;;;12.17;5.23;;;2.30;99.90;;;1.86;100.00;96396.84;171128;28;1849;-79
2021/12/03 00:06:16;;;;;;;12.27;5.47;;;2.30;99.90;;;1.86;100.00;96388.91;172228;28;1441;-79
2021/12/03 00:06:22;;;;;;;13.20;5.50;;;2.30;99.90;;;1.73;100.00;96372.56;172122;28;1493;-80
2021/12/03 00:06:28;;;;;;;12.10;5.50;;;2.30;99.90;;;1.80;100.00;96382.41;172419;28;1312;-78
2021/12/03 00:06:36;;;;;;;13.80;5.70;;;2.30;99.90;;;1.71;100.00;96368.25;173115;28;1383;-80
2021/12/03 00:06:42;;;;;;;14.13;5.90;;;2.30;99.90;;;1.77;100.00;96376.56;171704;28;1402;-79
2021/12/03 00:06:48;;;;;;;13.85;5.80;;;2.30;99.90;;;1.93;100.00;96400.50;171502;28;1486;-80
2021/12/03 00:06:55;;;;;;;13.07;5.78;;;2.30;99.90;;;1.67;100.00;96361.63;172556;28;907;-79
2021/12/03 00:07:01;;;;;;;13.12;5.77;;;2.30;99.90;;;1.75;100.00;96368.78;171623;28;1401;-79
2021/12/03 00:07:07;;;;;;;11.67;5.60;;;2.30;99.90;;;1.68;100.00;96362.44;173828;28;1304;-79
2021/12/03 00:07:14;;;;;;;11.57;5.60;;;2.30;99.90;;;1.67;100.00;96371.38;172873;28;1310;-79
2021/12/03 00:07:20;;;;;;;12.14;5.56;;;2.30;99.90;;;1.67;100.00;96361.63;172341;28;1391;-79
2021/12/03 00:07:26;;;;;;;11.93;5.38;;;2.30;99.90;;;1.90;100.00;96398.19;172627;28;1243;-80
2021/12/03 00:07:33;;;;;;;11.68;5.18;;;2.30;99.90;;;1.85;100.00;96387.22;171833;28;1292;-79
2021/12/03 00:07:41;;;;;;;12.73;5.30;;;2.30;99.90;;;1.92;100.00;96404.16;172255;28;1383;-80
2021/12/03 00:07:48;;;;;;;13.28;5.60;;;2.30;99.90;;;1.85;100.00;96392.53;173064;28;1363;-79
2021/12/03 00:07:54;;;;;;;12.32;5.52;;;2.30;99.90;;;1.90;100.00;96390.22;172332;28;1386;-80
2021/12/03 00:08:00;;;;;;;14.15;5.65;;;2.30;99.90;;;1.99;100.00;96411.31;171251;28;915;-80
2021/12/03 00:08:07;;;;;;;12.86;5.52;;;2.30;99.90;;;1.97;100.00;96409.84;172676;28;1253;-79
2021/12/03 00:08:14;;;;;;;11.84;5.14;;;2.30;99.90;;;1.89;100.00;96396.53;171342;28;1410;-79
2021/12/03 00:08:20;;;;;;;12.27;5.10;;;2.30;99.90;;;1.80;100.00;96376.25;170767;28;1399;-80
2021/12/03 00:08:27;;;;;;;11.55;5.00;;;2.30;99.90;;;1.99;100.00;96418.44;172556;28;1596;-80
2021/12/03 00:08:33;;;;;;;10.72;5.08;;;2.30;99.90;;;2.00;100.00;96417.47;172242;28;1503;-79
2021/12/03 00:08:40;;;;;;;11.10;5.03;;;2.30;99.90;;;1.92;100.00;96396.19;171829;28;1355;-80
2021/12/03 00:08:46;;;;;;;13.20;5.23;;;2.30;99.90;;;1.90;100.00;96398.19;173136;28;1162;-79
2021/12/03 00:08:53;;;;;;;14.20;5.40;;;2.30;99.90;;;1.86;100.00;96387.06;172468;28;1485;-79
2021/12/03 00:08:59;;;;;;;14.77;5.73;;;2.30;99.90;;;1.99;100.00;96413.97;170743;28;1370;-79
2021/12/03 00:09:07;;;;;;;14.27;5.70;;;2.30;99.90;;;1.89;100.00;96399.19;172314;28;1322;-78
2021/12/03 00:09:13;;;;;;;11.20;5.57;;;2.30;99.90;;;1.64;100.00;96356.63;171664;28;1238;-80
2021/12/03 00:09:19;;;;;;;11.70;5.70;;;2.30;99.90;;;1.95;100.00;96403.84;172075;28;1294;-80
2021/12/03 00:09:26;;;;;;;11.10;5.25;;;2.30;99.90;;;1.94;100.00;96402.19;171635;28;1294;-80
2021/12/03 00:09:35;;;;;;;10.80;5.10;;;2.30;99.90;;;1.96;100.00;96409.00;172470;28;1248;-79
2021/12/03 00:09:41;;;;;;;11.93;5.25;;;2.30;99.90;;;1.93;100.00;96405.81;173803;28;1306;-80
2021/12/03 00:09:47;;;;;;;11.20;5.05;;;2.30;99.90;;;1.99;100.00;96410.50;174510;28;1345;-80
2021/12/03 00:09:53;;;;;;;10.57;5.03;;;2.30;99.90;;;1.99;100.00;96408.66;172127;28;1275;-80
2021/12/03 00:10:00;;;;;;;11.38;5.40;;;2.30;99.90;;;1.90;100.00;96396.38;173143;28;856;-79
2021/12/03 00:10:08;;;;;;;12.13;5.57;;;2.30;99.90;;;1.99;100.00;96415.81;173325;28;1383;-79
2021/12/03 00:10:22;;;;;;;11.40;5.63;;;2.30;99.90;;;1.90;100.00;96400.84;172926;28;1516;-80
2021/12/03 00:10:28;;;;;;;12.29;5.74;;;2.40;99.90;;;1.96;100.00;96411.66;172428;28;1377;-80
2021/12/03 00:10:37;;;;;;;11.20;5.53;;;2.30;99.90;;;2.02;100.00;96421.59;172813;28;1447;-80
2021/12/03 00:10:45;;;;;;;11.79;5.61;;;2.30;99.90;;;2.03;100.00;96419.78;172659;28;1462;-79
2021/12/03 00:11:01;;;;;;;11.70;5.63;;;2.30;99.90;;;2.01;100.00;96414.66;171560;28;1447;-79
2021/12/03 00:11:10;;;;;;;11.00;5.44;;;2.40;99.90;;;1.96;100.00;96405.53;171720;28;1577;-79
2021/12/03 00:11:17;;;;;;;10.50;5.13;;;2.30;99.90;;;1.87;100.00;96393.19;172358;28;1528;-80
2021/12/03 00:11:24;;;;;;;11.17;5.20;;;2.40;99.90;;;2.04;100.00;96421.47;172001;28;1549;-80
2021/12/03 00:11:30;;;;;;;12.53;5.37;;;2.30;99.90;;;1.95;100.00;96414.47;172572;28;872;-80
2021/12/03 00:11:36;;;;;;;12.23;5.37;;;2.40;99.90;;;2.02;100.00;96423.47;172197;28;1485;-78
2021/12/03 00:11:42;;;;;;;13.03;5.40;;;2.30;99.90;;;1.97;100.00;96421.25;172342;28;2012;-80
2021/12/03 00:11:48;;;;;;;13.18;5.43;;;2.40;99.90;;;1.99;100.00;96413.97;171021;28;1296;-79
2021/12/03 00:11:54;;;;;;;11.63;5.10;;;2.40;99.90;;;2.03;100.00;96417.13;172502;28;1319;-80
2021/12/03 00:12:00;;;;;;;12.55;4.97;;;2.40;99.90;;;1.65;100.00;96353.00;173204;28;871;-80
2021/12/03 00:12:07;;;;;;;11.77;4.82;;;2.40;99.90;;;1.70;100.00;96371.94;171739;28;1406;-80
2021/12/03 00:12:13;;;;;;;10.47;4.67;;;2.40;99.90;;;1.96;100.00;96411.66;171555;28;1465;-80
2021/12/03 00:12:20;;;;;;;10.48;4.68;;;2.40;99.90;;;1.90;100.00;96399.03;172021;28;1368;-79
2021/12/03 00:12:26;;;;;;;10.16;4.80;;;2.40;99.90;;;2.06;100.00;96424.78;172499;28;1362;-79
2021/12/03 00:12:33;;;;;;;10.32;5.07;;;2.40;99.90;;;1.98;100.00;96417.63;173030;28;1467;-79
2021/12/03 00:12:41;;;;;;;12.28;5.14;;;2.40;99.90;;;1.98;100.00;96414.13;172527;28;957;-79
2021/12/03 00:12:47;;;;;;;13.44;5.22;;;2.40;99.90;;;1.94;100.00;96404.84;172150;28;1251;-80
2021/12/03 00:12:57;;;;;;;13.16;5.20;;;2.40;99.90;;;2.00;100.00;96417.47;171882;28;1046;-80
2021/12/03 00:13:07;;;;;;;12.43;5.29;;;2.40;99.90;;;2.04;100.00;96426.75;170929;28;1471;-80
2021/12/03 00:13:13;;;;;;;10.23;5.29;;;2.40;99.90;;;1.91;100.00;96399.84;171599;28;1281;-79
2021/12/03 00:13:20;;;;;;;10.35;5.38;;;2.40;99.90;;;1.79;100.00;96387.84;172008;28;1283;-79
2021/12/03 00:13:31;;;;;;;10.37;5.20;;;2.40;99.90;;;1.93;100.00;96403.16;171167;28;1363;-79
2021/12/03 00:13:38;;;;;;;10.19;4.90;;;2.40;99.90;;;1.98;100.00;96414.97;172239;28;1447;-80
2021/12/03 00:13:44;;;;;;;11.16;4.94;;;2.40;99.90;;;2.07;100.00;96426.47;172440;28;1460;-80
2021/12/03 00:13:50;;;;;;;11.67;5.30;;;2.40;99.90;;;1.84;100.00;96391.69;172269;28;1651;-79
2021/12/03 00:13:56;;;;;;;12.23;5.57;;;2.40;99.90;;;1.90;100.00;96412.28;172597;28;1038;-79
2021/12/03 00:14:02;;;;;;;12.68;5.68;;;2.40;99.90;;;2.03;100.00;96427.75;172769;28;1445;-79
2021/12/03 00:14:08;;;;;;;11.77;5.80;;;2.40;99.90;;;1.95;100.00;96411.81;172617;28;886;-80
2021/12/03 00:14:14;;;;;;;11.17;5.63;;;2.40;99.90;;;1.98;100.00;96409.66;171119;28;1353;-79
2021/12/03 00:14:20;;;;;;;10.98;5.18;;;2.40;99.90;;;1.79;100.00;96383.38;172465;28;1389;-79
2021/12/03 00:14:26;;;;;;;10.02;4.90;;;2.40;99.90;;;1.83;100.00;96386.53;172814;28;1570;-80
2021/12/03 00:14:34;;;;;;;10.93;4.95;;;2.40;99.90;;;1.83;100.00;96398.00;172218;28;1357;-80
2021/12/03 00:14:40;;;;;;;12.67;5.06;;;2.40;99.90;;;1.98;100.00;96416.78;172300;28;1551;-80
2021/12/03 00:14:46;;;;;;;13.55;5.43;;;2.40;99.90;;;1.81;100.00;96385.91;171635;28;1403;-80
2021/12/03 00:14:52;;;;;;;14.10;5.50;;;2.40;99.90;;;1.87;100.00;96401.97;171728;28;1209;-79
2021/12/03 00:14:58;;;;;;;14.57;5.45;;;2.40;99.90;;;1.93;100.00;96409.31;171581;28;1263;-80
2021/12/03 00:15:08;;;;;;;13.43;5.50;;;2.40;99.90;;;1.85;100.00;96395.19;171442;28;1432;-79
2021/12/03 00:15:15;;;;;;;12.63;5.19;;;2.40;99.90;;;1.95;100.00;96415.31;170341;29;1417;-79
2021/12/03 00:15:25;;;;;;;11.65;5.03;;;2.40;99.90;;;1.98;100.00;96414.97;170718;28;1366;-79
2021/12/03 00:15:32;;;;;;;12.79;5.26;;;2.40;99.90;;;1.96;100.00;96419.63;171168;28;1127;-79
2021/12/03 00:15:38;;;;;;;12.28;5.48;;;2.40;99.90;;;1.98;100.00;96422.94;172339;28;1435;-80
2021/12/03 00:15:44;;;;;;;13.00;5.65;;;2.40;99.90;;;1.67;100.00;96366.91;172324;28;1316;-79
2021/12/03 00:15:52;;;;;;;13.83;5.60;;;2.40;99.90;;;1.98;100.00;96414.97;172627;28;1197;-79
2021/12/03 00:16:01;;;;;;;12.64;5.47;;;2.40;99.90;;;1.99;100.00;96415.81;171199;28;1086;-79
2021/12/03 00:16:08;;;;;;;12.65;5.10;;;2.40;99.90;;;1.79;100.00;96395.81;173368;28;1172;-79
2021/12/03 00:16:14;;;;;;;12.34;5.30;;;2.40;99.90;;;1.97;100.00;96428.41;172953;28;1331;-79
2021/12/03 00:16:20;;;;;;;12.97;5.70;;;2.40;99.90;;;1.94;100.00;96415.44;170842;28;1365;-79
2021/12/03 00:16:26;;;;;;;12.30;5.72;;;2.40;99.90;;;1.69;100.00;96375.56;171731;28;1446;-80
2021/12/03 00:16:32;;;;;;;12.20;6.10;;;2.30;99.90;;;2.01;100.00;96427.09;172197;28;1449;-79
2021/12/03 00:16:38;;;;;;;12.73;6.17;;;2.40;99.90;;;1.95;100.00;96417.94;173845;28;1474;-80
2021/12/03 00:16:44;;;;;;;12.57;5.80;;;2.30;99.90;;;1.86;100.00;96402.16;172642;28;1172;-79
2021/12/03 00:16:50;;;;;;;11.90;5.65;;;2.40;99.90;;;2.00;100.00;96428.91;172759;28;1447;-79
2021/12/03 00:16:56;;;;;;;13.57;5.63;;;2.40;99.90;;;2.03;100.00;96425.94;170898;28;1319;-79
2021/12/03 00:17:04;;;;;;;13.37;5.30;;;2.40;99.90;;;1.98;100.00;96417.63;171165;28;1018;-80
2021/12/03 00:17:10;;;;;;;13.08;5.38;;;2.40;99.90;;;2.02;100.00;96432.22;172673;28;1892;-79
2021/12/03 00:17:16;;;;;;;13.32;5.50;;;2.30;99.90;;;1.95;100.00;96425.91;172137;28;1419;-78
2021/12/03 00:17:22;;;;;;;12.73;5.27;;;2.40;99.90;;;2.04;100.00;96437.38;172118;28;1460;-80
2021/12/03 00:17:27;;;;;;;11.45;5.38;;;2.40;99.90;;;1.93;100.00;96411.97;172433;28;1439;-80
2021/12/03 00:17:34;;;;;;;12.23;5.60;;;2.40;99.90;;;2.05;100.00;96433.75;173044;28;1266;-80
2021/12/03 00:17:40;;;;;;;12.60;5.57;;;2.40;99.90;;;2.02;100.00;96426.91;172642;28;1054;-78
2021/12/03 00:17:46;;;;;;;11.80;5.47;;;2.40;99.90;;;1.86;100.00;96396.84;171108;28;1224;-79
2021/12/03 00:17:54;;;;;;;11.70;5.57;;;2.40;99.90;;;1.99;100.00;96421.09;171765;28;1305;-79
2021/12/03 00:18:00;;;;;;;12.43;5.30;;;2.40;99.90;;;1.72;100.00;96387.66;172632;28;1267;-79
2021/12/03 00:18:06;;;;;;;12.97;5.40;;;2.40;99.90;;;1.78;100.00;96389.69;172375;28;1342;-80
2021/12/03 00:18:12;;;;;;;12.55;5.30;;;2.40;99.90;;;1.84;100.00;96399.66;172368;28;1041;-79
2021/12/03 00:18:18;;;;;;;11.87;5.10;;;2.40;99.90;;;1.98;100.00;96414.97;171285;28;1400;-79
2021/12/03 00:18:26;;;;;;;12.02;5.22;;;2.40;99.90;;;2.04;100.00;96432.06;171740;28;1508;-78
2021/12/03 00:18:33;;;;;;;11.13;5.07;;;2.40;99.90;;;1.95;100.00;96411.81;172876;28;1378;-80
2021/12/03 00:18:40;;;;;;;10.10;4.80;;;2.40;99.90;;;2.01;100.00;96419.97;173223;28;1116;-80
2021/12/03 00:18:46;;;;;;;11.43;5.10;;;2.40;99.90;;;1.91;100.00;96407.81;171600;28;1459;-80
2021/12/03 00:18:53;;;;;;;11.87;5.40;;;2.40;99.90;;;2.06;100.00;96438.91;172433;28;1134;-80
2021/12/03 00:18:59;;;;;;;12.27;5.30;;;2.40;99.90;;;1.96;100.00;96419.63;173624;28;1444;-79
2021/12/03 00:19:05;;;;;;;12.38;5.50;;;2.40;99.90;;;1.95;100.00;96414.47;173785;28;1129;-79
2021/12/03 00:19:10;;;;;;;12.13;5.50;;;2.40;99.90;;;1.88;100.00;96397.50;171741;28;1626;-79
2021/12/03 00:19:17;;;;;;;11.40;5.20;;;2.40;99.90;;;1.99;100.00;96426.41;171765;28;1358;-80
2021/12/03 00:19:22;;;;;;;10.65;4.85;;;2.40;99.90;;;2.02;100.00;96426.91;173329;28;1124;-79
2021/12/03 00:19:30;;;;;;;9.57;4.67;;;2.40;99.90;;;2.07;100.00;96432.56;173755;28;1341;-79
2021/12/03 00:19:35;;;;;;;9.53;4.47;;;2.40;99.90;;;1.90;100.00;96403.50;172339;28;1411;-80
2021/12/03 00:19:42;;;;;;;9.57;4.53;;;2.40;99.90;;;2.03;100.00;96425.94;171740;28;1381;-80
2021/12/03 00:19:48;;;;;;;9.65;4.70;;;2.40;99.90;;;1.85;100.00;96401.31;170964;28;1434;-79
2021/12/03 00:19:54;;;;;;;10.55;4.80;;;2.40;99.90;;;2.07;100.00;96437.88;172353;28;1307;-79
2021/12/03 00:20:00;;;;;;;10.07;4.70;;;2.40;99.90;;;1.98;100.00;96422.09;173211;28;1240;-79
2021/12/03 00:20:12;;;;;;;9.93;4.77;;;2.40;99.90;;;2.06;100.00;96443.38;172835;28;1350;-80
2021/12/03 00:20:19;;;;;;;9.96;4.76;;;2.40;99.90;;;2.02;100.00;96428.78;172778;28;1243;-80
2021/12/03 00:20:26;;;;;;;9.52;4.90;;;2.40;99.90;;;2.07;100.00;96440.53;172426;28;1497;-79
2021/12/03 00:20:35;;;;;;;11.57;5.37;;;2.40;99.90;;;1.97;100.00;96423.09;171683;28;1390;-79
2021/12/03 00:20:41;;;;;;;11.80;5.60;;;2.40;99.90;;;1.92;100.00;96412.09;173143;28;1426;-79
2021/12/03 00:20:48;;;;;;;14.70;5.73;;;2.40;99.90;;;1.79;100.00;96393.16;171091;28;1453;-79
2021/12/03 00:20:56;;;;;;;14.95;5.85;;;2.40;99.90;;;1.98;100.00;96422.09;171378;28;912;-79
2021/12/03 00:21:06;;;;;;;13.73;6.03;;;2.40;99.90;;;1.95;100.00;96417.13;170602;29;943;-79
2021/12/03 00:21:13;;;;;;;15.93;6.34;;;2.40;99.90;;;1.99;100.00;96424.59;170422;29;1408;-79
2021/12/03 00:21:20;;;;;;;13.63;6.43;;;2.40;99.90;;;1.88;100.00;96408.94;171797;28;1287;-79
2021/12/03 00:21:27;;;;;;;14.37;6.53;;;2.40;99.90;;;1.96;100.00;96416.13;171041;28;1477;-80
2021/12/03 00:21:33;;;;;;;14.95;6.22;;;2.40;99.90;;;1.96;100.00;96421.44;173023;28;1559;-79
2021/12/03 00:21:39;;;;;;;13.55;5.82;;;2.40;99.90;;;1.99;100.00;96421.09;174455;28;1418;-80
2021/12/03 00:21:45;;;;;;;14.77;5.77;;;2.40;99.90;;;1.97;100.00;96423.09;172276;28;2289;-76
2021/12/03 00:21:51;;;;;;;15.73;5.53;;;2.40;99.90;;;1.85;100.00;96398.66;173653;28;1226;-80
2021/12/03 00:21:57;;;;;;;14.75;5.32;;;2.40;99.90;;;1.93;100.00;96414.63;173873;28;1536;-80
2021/12/03 00:22:03;;;;;;;13.93;5.43;;;2.40;99.90;;;1.98;100.00;96422.94;172210;28;1232;-79
2021/12/03 00:22:09;;;;;;;13.75;5.53;;;2.40;99.90;;;2.03;100.00;96433.91;171755;28;1448;-79
2021/12/03 00:22:15;;;;;;;12.02;5.40;;;2.40;99.90;;;2.00;100.00;96420.13;170939;28;967;-79
2021/12/03 00:22:21;;;;;;;11.48;5.35;;;2.40;99.90;;;2.00;100.00;96430.75;172487;28;1443;-79
2021/12/03 00:22:27;;;;;;;11.45;5.43;;;2.40;99.90;;;1.67;100.00;96374.88;171116;28;1242;-78
2021/12/03 00:22:33;;;;;;;10.68;5.05;;;2.40;99.90;;;2.03;100.00;96431.25;172435;28;1340;-80
2021/12/03 00:22:46;;;;;;;11.30;5.30;;;2.40;99.90;;;1.98;100.00;96422.94;174455;28;1370;-79
2021/12/03 00:22:57;;;;;;;11.57;5.55;;;2.40;99.90;;;2.03;100.00;96433.06;173004;28;1371;-78
2021/12/03 00:23:06;;;;;;;13.38;5.84;;;2.40;99.90;;;1.86;100.00;96404.81;171653;28;1447;-79
2021/12/03 00:23:13;;;;;;;14.83;5.73;;;2.40;99.90;;;1.99;100.00;96427.25;172298;28;1402;-80
2021/12/03 00:23:22;;;;;;;14.20;5.70;;;2.40;99.90;;;1.89;100.00;96412.44;172484;28;1325;-79
2021/12/03 00:23:28;;;;;;;13.47;5.43;;;2.40;99.90;;;2.00;100.00;96426.25;173307;28;970;-80
2021/12/03 00:23:35;;;;;;;11.50;5.24;;;2.40;99.90;;;1.76;100.00;96393.50;172853;28;1333;-80
2021/12/03 00:23:42;;;;;;;10.97;5.47;;;2.40;99.90;;;1.90;100.00;96412.28;171603;28;1328;-80
2021/12/03 00:23:48;;;;;;;11.67;5.27;;;2.30;99.90;;;1.98;100.00;96425.59;170887;28;1368;-79
2021/12/03 00:23:54;;;;;;;13.23;5.30;;;2.40;99.90;;;2.02;100.00;96426.13;171102;28;1372;-79
2021/12/03 00:24:00;;;;;;;13.45;5.32;;;2.40;99.90;;;2.02;100.00;96431.41;171849;28;848;-79
2021/12/03 00:24:06;;;;;;;13.70;5.35;;;2.40;99.90;;;1.76;100.00;96402.28;171642;28;1463;-80
2021/12/03 00:24:13;;;;;;;14.45;5.57;;;2.40;99.90;;;1.70;100.00;96387.00;172440;28;1448;-79
2021/12/03 00:24:19;;;;;;;13.03;5.77;;;2.30;99.90;;;1.80;100.00;96400.13;173157;28;1451;-78
2021/12/03 00:24:25;;;;;;;11.57;5.67;;;2.30;99.90;;;1.95;100.00;96423.25;171503;28;1363;-79
2021/12/03 00:24:31;;;;;;;12.45;5.70;;;2.30;99.90;;;1.97;100.00;96428.41;172442;28;1281;-79
2021/12/03 00:24:38;;;;;;;13.13;5.53;;;2.30;99.90;;;1.84;100.00;96402.31;172798;28;1565;-80
2021/12/03 00:24:44;;;;;;;13.83;5.37;;;2.30;99.90;;;1.96;100.00;96430.25;171061;28;1083;-80
2021/12/03 00:24:50;;;;;;;13.52;5.32;;;2.30;99.90;;;1.94;100.00;96420.75;171373;28;1308;-79
2021/12/03 00:24:56;;;;;;;13.67;5.37;;;2.30;99.90;;;1.94;100.00;96420.75;170960;28;1248;-79
2021/12/03 00:25:03;;;;;;;13.07;5.30;;;2.30;99.90;;;1.94;100.00;96418.09;172477;28;1384;-80
2021/12/03 00:25:10;;;;;;;13.40;5.30;;;2.30;99.90;;;1.93;100.00;96419.91;173418;28;1586;-79
2021/12/03 00:25:16;;;;;;;12.20;5.30;;;2.30;99.90;;;1.96;100.00;96421.44;172290;28;1922;-79
2021/12/03 00:25:23;;;;;;;12.33;5.50;;;2.30;99.90;;;1.98;100.00;96422.94;171922;28;1387;-79
2021/12/03 00:25:31;;;;;;;11.78;5.66;;;2.30;99.90;;;1.85;100.00;96401.31;172580;28;899;-78
2021/12/03 00:25:37;;;;;;;10.24;5.70;;;2.30;99.90;;;1.79;100.00;96390.50;172101;28;1531;-79
2021/12/03 00:25:43;;;;;;;9.88;5.76;;;2.30;99.90;;;1.98;100.00;96428.22;171880;28;971;-79
2021/12/03 00:25:49;;;;;;;10.43;5.82;;;2.40;99.90;;;1.85;100.00;96409.28;170416;28;1407;-79
2021/12/03 00:26:00;;;;;;;11.02;5.70;;;2.40;99.90;;;1.88;100.00;96413.44;172453;28;1361;-80
2021/12/03 00:26:08;;;;;;;12.72;5.70;;;2.40;99.90;;;1.93;100.00;96413.78;172899;28;1378;-79
2021/12/03 00:26:14;;;;;;;14.03;5.87;;;2.30;99.90;;;1.88;100.00;96406.31;171671;28;1275;-79
2021/12/03 00:26:20;;;;;;;13.20;5.57;;;2.40;99.90;;;1.88;100.00;96416.91;171870;28;1342;-79
2021/12/03 00:26:26;;;;;;;12.53;5.70;;;2.40;99.90;;;1.97;100.00;96417.81;172394;28;1410;-79
2021/12/03 00:26:32;;;;;;;11.77;5.70;;;2.40;99.90;;;2.04;100.00;96435.56;171816;28;1216;-78
2021/12/03 00:26:39;;;;;;;11.95;5.60;;;2.40;99.90;;;1.99;100.00;96426.41;173070;28;1194;-79
2021/12/03 00:26:45;;;;;;;11.85;5.55;;;2.40;99.90;;;1.97;100.00;96423.09;172260;28;1576;-79
2021/12/03 00:26:51;;;;;;;12.43;5.60;;;2.40;99.90;;;2.03;100.00;96436.53;172703;28;1384;-78
2021/12/03 00:26:57;;;;;;;12.50;5.40;;;2.40;99.90;;;1.69;100.00;96374.72;174304;28;1094;-79
2021/12/03 00:27:04;;;;;;;13.68;5.57;;;2.40;99.90;;;1.95;100.00;96419.78;173784;28;1354;-80
2021/12/03 00:27:10;;;;;;;13.76;6.00;;;2.40;99.90;;;1.98;100.00;96427.41;172125;28;1762;-80
2021/12/03 00:27:16;;;;;;;14.40;6.00;;;2.40;99.90;;;2.03;100.00;96428.59;173096;28;1180;-79
2021/12/03 00:27:22;;;;;;;15.38;6.28;;;2.40;99.90;;;2.03;100.00;96431.25;172872;28;1494;-79
2021/12/03 00:27:28;;;;;;;15.37;6.33;;;2.40;99.90;;;2.05;100.00;96437.22;172489;28;1482;-78
2021/12/03 00:27:34;;;;;;;13.93;6.03;;;2.40;99.90;;;2.00;100.00;96428.91;170917;28;1265;-78
2021/12/03 00:27:41;;;;;;;14.90;5.60;;;2.40;99.90;;;1.93;100.00;96419.09;171818;28;872;-79
2021/12/03 00:27:47;;;;;;;14.53;5.43;;;2.40;99.90;;;1.96;100.00;96424.94;172148;28;1082;-79
2021/12/03 00:27:53;;;;;;;14.35;5.18;;;2.40;99.90;;;1.83;100.00;96403.28;174274;28;1167;-79
2021/12/03 00:27:59;;;;;;;14.68;5.38;;;2.40;99.90;;;2.00;100.00;96436.03;172382;28;1212;-79
2021/12/03 00:28:06;;;;;;;14.77;5.43;;;2.40;99.90;;;1.98;100.00;96430.88;172943;28;1459;-79
2021/12/03 00:28:12;;;;;;;12.40;5.27;;;2.40;99.90;;;1.93;100.00;96427.03;174087;28;2151;-79
2021/12/03 00:28:18;;;;;;;13.53;5.50;;;2.40;99.90;;;1.99;100.00;96435.22;171992;28;1374;-79
2021/12/03 00:28:24;;;;;;;13.50;5.47;;;2.40;99.90;;;2.01;100.00;96437.72;173082;28;1442;-78
2021/12/03 00:28:33;;;;;;;13.75;5.53;;;2.40;99.90;;;2.05;100.00;96449.66;172363;28;1234;-79
2021/12/03 00:28:39;;;;;;;15.90;5.67;;;2.40;99.90;;;1.93;100.00;96427.88;171585;28;1443;-78
2021/12/03 00:28:46;;;;;;;14.64;5.90;;;2.40;99.90;;;1.82;100.00;96403.44;170973;28;1317;-79
2021/12/03 00:28:52;;;;;;;15.83;6.20;;;2.40;99.90;;;1.74;100.00;96396.31;172294;28;1423;-79
2021/12/03 00:28:58;;;;;;;17.27;6.10;;;2.40;99.90;;;1.84;100.00;96412.94;172416;28;1276;-79
2021/12/03 00:29:05;;;;;;;17.27;6.15;;;2.40;99.90;;;1.87;100.00;96411.75;171647;28;1601;-80
2021/12/03 00:29:10;;;;;;;17.57;6.30;;;2.40;99.90;;;1.99;100.00;96431.72;172333;28;1041;-80
2021/12/03 00:29:16;;;;;;;18.05;6.10;;;2.40;99.90;;;1.89;100.00;96415.94;171828;28;1221;-79
2021/12/03 00:29:22;;;;;;;16.65;6.00;;;2.40;99.90;;;2.00;100.00;96436.03;172151;28;1518;-79
2021/12/03 00:29:28;;;;;;;14.95;5.90;;;2.40;99.90;;;1.96;100.00;96432.06;171742;28;1197;-80
2021/12/03 00:29:34;;;;;;;16.38;5.72;;;2.40;99.90;;;2.00;100.00;96436.88;170421;28;1323;-79
2021/12/03 00:29:40;;;;;;;16.05;5.45;;;2.30;99.90;;;1.99;100.00;96435.22;172427;28;1315;-80
2021/12/03 00:29:47;;;;;;;16.02;5.30;;;2.40;99.90;;;1.89;100.00;96423.06;172210;28;1311;-80